createdAt,value
2022-11-15T00:00:56.188Z,0.30
2022-11-15T00:01:56.317Z,0.30
2022-11-15T00:02:56.163Z,0.20
2022-11-15T00:03:56.152Z,0.20
2022-11-15T00:04:56.137Z,0.20
2022-11-15T00:06:56.163Z,0.20
2022-11-15T00:07:56.464Z,0.20
2022-11-15T00:08:56.088Z,0.20
2022-11-15T00:09:56.076Z,0.20
2022-11-15T00:10:56.064Z,0.20
2022-11-15T00:11:56.050Z,0.20
2022-11-15T00:12:56.038Z,0.20
2022-11-15T00:13:56.025Z,0.30
2022-11-15T00:14:56.012Z,0.20
2022-11-15T00:15:56.004Z,0.30
2022-11-15T00:17:55.999Z,0.20
2022-11-15T00:18:55.960Z,0.30
2022-11-15T00:19:55.950Z,0.30
2022-11-15T00:20:55.936Z,0.30
2022-11-15T00:21:55.926Z,0.30
2022-11-15T00:22:55.909Z,0.20
2022-11-15T00:23:55.899Z,0.30
2022-11-15T00:24:55.885Z,0.30
2022-11-15T00:25:55.874Z,0.20
2022-11-15T00:26:55.860Z,0.30
2022-11-15T00:28:55.834Z,0.30
2022-11-15T00:29:55.824Z,0.30
2022-11-15T00:30:55.808Z,0.30
2022-11-15T00:31:55.797Z,0.30
2022-11-15T00:32:55.780Z,0.20
2022-11-15T00:33:55.793Z,0.20
2022-11-15T00:34:55.755Z,0.30
2022-11-15T00:35:55.743Z,0.20
2022-11-15T00:36:55.727Z,0.20
2022-11-15T00:37:55.717Z,0.30
2022-11-15T00:39:55.694Z,0.30
2022-11-15T00:40:55.676Z,0.20
2022-11-15T00:41:55.667Z,0.30
2022-11-15T00:42:55.652Z,0.30
2022-11-15T00:43:55.639Z,0.30
2022-11-15T00:44:55.624Z,0.30
2022-11-15T00:45:55.614Z,0.30
2022-11-15T00:46:55.598Z,0.30
2022-11-15T00:47:55.588Z,0.30
2022-11-15T00:48:55.578Z,0.30
2022-11-15T00:50:55.546Z,0.40
2022-11-15T00:51:55.535Z,0.30
2022-11-15T00:52:55.521Z,0.30
2022-11-15T00:53:55.509Z,0.30
2022-11-15T00:54:55.495Z,0.30
2022-11-15T00:55:55.482Z,0.30
2022-11-15T00:56:55.469Z,0.30
2022-11-15T00:57:55.455Z,0.20
2022-11-15T00:58:55.441Z,0.20
2022-11-15T00:59:55.428Z,0.20
2022-11-15T01:01:55.401Z,0.20
2022-11-15T01:02:55.389Z,0.20
2022-11-15T01:04:00.907Z,0.20
2022-11-15T01:04:55.358Z,0.30
2022-11-15T01:05:55.373Z,0.20
2022-11-15T01:06:55.371Z,0.30
2022-11-15T01:07:55.321Z,0.30
2022-11-15T01:08:55.308Z,0.30
2022-11-15T01:09:55.296Z,0.30
2022-11-15T01:10:55.282Z,0.30
2022-11-15T01:12:55.255Z,0.20
2022-11-15T01:13:55.243Z,0.20
2022-11-15T01:14:55.228Z,0.20
2022-11-15T01:15:55.218Z,0.20
2022-11-15T01:16:55.206Z,0.20
2022-11-15T01:17:55.192Z,0.30
2022-11-15T01:18:55.178Z,0.30
2022-11-15T01:19:55.165Z,0.30
2022-11-15T01:20:55.151Z,0.30
2022-11-15T01:21:55.162Z,0.20
2022-11-15T01:23:55.113Z,0.20
2022-11-15T01:24:55.101Z,0.20
2022-11-15T01:25:55.090Z,0.20
2022-11-15T01:26:55.072Z,0.30
2022-11-15T01:27:55.062Z,0.30
2022-11-15T01:28:55.049Z,0.30
2022-11-15T01:29:55.037Z,0.30
2022-11-15T01:30:55.022Z,0.30
2022-11-15T01:31:55.019Z,0.30
2022-11-15T01:32:54.994Z,0.30
2022-11-15T01:34:54.974Z,0.20
2022-11-15T01:35:54.957Z,0.20
2022-11-15T01:36:54.948Z,0.30
2022-11-15T01:37:54.956Z,0.20
2022-11-15T01:38:54.921Z,0.30
2022-11-15T01:39:54.907Z,0.20
2022-11-15T01:40:54.894Z,0.30
2022-11-15T01:41:54.880Z,0.20
2022-11-15T01:42:54.870Z,0.30
2022-11-15T01:43:54.853Z,0.30
2022-11-15T01:45:54.829Z,0.30
2022-11-15T01:46:54.817Z,0.30
2022-11-15T01:47:54.802Z,0.30
2022-11-15T01:48:54.792Z,0.20
2022-11-15T01:49:54.776Z,0.30
2022-11-15T01:50:54.767Z,0.30
2022-11-15T01:51:54.750Z,0.40
2022-11-15T01:52:54.742Z,0.40
2022-11-15T01:53:54.749Z,0.40
2022-11-15T01:54:54.713Z,0.30
2022-11-15T01:56:54.691Z,0.40
2022-11-15T01:57:54.684Z,0.30
2022-11-15T01:58:54.662Z,0.20
2022-11-15T01:59:54.648Z,0.30
2022-11-15T02:00:54.672Z,0.30
2022-11-15T02:01:54.621Z,0.20
2022-11-15T02:02:54.609Z,0.30
2022-11-15T02:03:54.596Z,0.30
2022-11-15T02:04:54.585Z,0.20
2022-11-15T02:05:54.571Z,0.20
2022-11-15T02:07:54.546Z,0.30
2022-11-15T02:08:54.533Z,0.30
2022-11-15T02:09:54.541Z,0.30
2022-11-15T02:10:54.510Z,0.20
2022-11-15T02:11:54.493Z,0.30
2022-11-15T02:12:54.480Z,0.20
2022-11-15T02:13:54.467Z,0.20
2022-11-15T02:14:54.454Z,0.30
2022-11-15T02:15:56.953Z,0.20
2022-11-15T02:16:54.428Z,0.20
2022-11-15T02:18:54.402Z,0.20
2022-11-15T02:19:54.387Z,0.20
2022-11-15T02:20:54.376Z,0.20
2022-11-15T02:22:54.351Z,0.20
2022-11-15T02:23:54.338Z,0.20
2022-11-15T02:24:54.325Z,0.20
2022-11-15T02:25:54.332Z,0.20
2022-11-15T02:26:54.299Z,0.30
2022-11-15T02:27:54.284Z,0.30
2022-11-15T02:29:54.259Z,0.30
2022-11-15T02:30:54.247Z,0.20
2022-11-15T02:31:54.231Z,0.30
2022-11-15T02:32:54.220Z,0.20
2022-11-15T02:33:54.210Z,0.30
2022-11-15T02:34:54.203Z,0.30
2022-11-15T02:35:54.192Z,0.30
2022-11-15T02:36:54.171Z,0.20
2022-11-15T02:37:54.156Z,0.30
2022-11-15T02:38:54.145Z,0.30
2022-11-15T02:40:54.117Z,0.30
2022-11-15T02:41:54.127Z,0.30
2022-11-15T02:42:54.094Z,0.20
2022-11-15T02:43:54.079Z,0.30
2022-11-15T02:44:54.078Z,0.30
2022-11-15T02:45:54.050Z,0.20
2022-11-15T02:46:54.041Z,0.30
2022-11-15T02:47:54.025Z,0.30
2022-11-15T02:48:54.014Z,0.30
2022-11-15T02:49:53.998Z,0.30
2022-11-15T02:51:53.972Z,0.20
2022-11-15T02:52:53.961Z,0.20
2022-11-15T02:53:53.946Z,0.20
2022-11-15T02:54:53.938Z,0.20
2022-11-15T02:55:53.922Z,0.20
2022-11-15T02:56:53.910Z,0.20
2022-11-15T02:57:53.917Z,0.20
2022-11-15T02:58:53.883Z,0.20
2022-11-15T02:59:53.869Z,0.20
2022-11-15T03:00:53.906Z,0.30
2022-11-15T03:02:53.831Z,0.20
2022-11-15T03:03:53.818Z,0.20
2022-11-15T03:04:53.805Z,0.20
2022-11-15T03:05:53.799Z,0.20
2022-11-15T03:06:53.816Z,0.20
2022-11-15T03:07:58.078Z,0.20
2022-11-15T03:08:53.758Z,0.30
2022-11-15T03:09:53.744Z,0.20
2022-11-15T03:10:53.732Z,0.20
2022-11-15T03:11:53.713Z,0.30
2022-11-15T03:13:53.713Z,0.20
2022-11-15T03:14:53.677Z,0.20
2022-11-15T03:15:53.661Z,0.20
2022-11-15T03:16:53.651Z,0.20
2022-11-15T03:17:53.637Z,0.20
2022-11-15T03:18:53.627Z,0.30
2022-11-15T03:19:53.611Z,0.20
2022-11-15T03:20:53.599Z,0.20
2022-11-15T03:21:53.584Z,0.30
2022-11-15T03:22:53.572Z,0.20
2022-11-15T03:24:53.549Z,0.20
2022-11-15T03:25:53.533Z,0.20
2022-11-15T03:26:53.522Z,0.20
2022-11-15T03:27:53.507Z,0.30
2022-11-15T03:28:53.497Z,0.30
2022-11-15T03:29:53.505Z,0.20
2022-11-15T03:30:53.472Z,0.20
2022-11-15T03:31:53.456Z,0.20
2022-11-15T03:32:53.444Z,0.20
2022-11-15T03:33:53.430Z,0.20
2022-11-15T03:35:53.403Z,0.20
2022-11-15T03:36:53.395Z,0.30
2022-11-15T03:37:53.405Z,0.30
2022-11-15T03:38:53.368Z,0.30
2022-11-15T03:39:53.352Z,0.20
2022-11-15T03:40:53.343Z,0.30
2022-11-15T03:41:53.326Z,0.30
2022-11-15T03:42:53.315Z,0.30
2022-11-15T03:43:53.301Z,0.20
2022-11-15T03:44:53.293Z,0.20
2022-11-15T03:46:53.264Z,0.20
2022-11-15T03:47:53.249Z,0.20
2022-11-15T03:48:53.239Z,0.30
2022-11-15T03:49:53.223Z,0.20
2022-11-15T03:50:53.212Z,0.20
2022-11-15T03:51:53.199Z,0.30
2022-11-15T03:52:53.186Z,0.20
2022-11-15T03:53:53.170Z,0.20
2022-11-15T03:54:53.162Z,0.20
2022-11-15T03:55:53.144Z,0.30
2022-11-15T03:57:53.120Z,0.30
2022-11-15T03:58:53.109Z,0.30
2022-11-15T03:59:53.110Z,0.30
2022-11-15T04:00:53.112Z,0.20
2022-11-15T04:01:53.091Z,0.20
2022-11-15T04:02:53.057Z,0.30
2022-11-15T04:03:53.043Z,0.30
2022-11-15T04:04:53.033Z,0.20
2022-11-15T04:05:53.014Z,0.30
2022-11-15T04:06:53.090Z,0.30
2022-11-15T04:08:52.977Z,0.20
2022-11-15T04:09:52.963Z,0.20
2022-11-15T04:10:52.954Z,0.30
2022-11-15T04:11:52.938Z,0.20
2022-11-15T04:12:52.926Z,0.20
2022-11-15T04:13:52.910Z,0.20
2022-11-15T04:14:52.905Z,0.30
2022-11-15T04:15:52.884Z,0.20
2022-11-15T04:16:52.874Z,0.20
2022-11-15T04:17:52.885Z,0.30
2022-11-15T04:19:52.837Z,0.20
2022-11-15T04:20:52.823Z,0.30
2022-11-15T04:21:52.808Z,0.30
2022-11-15T04:22:52.797Z,0.20
2022-11-15T04:23:52.784Z,0.20
2022-11-15T04:24:52.770Z,0.30
2022-11-15T04:25:52.756Z,0.20
2022-11-15T04:26:52.745Z,0.20
2022-11-15T04:27:52.729Z,0.30
2022-11-15T04:28:52.718Z,0.20
2022-11-15T04:30:52.698Z,0.20
2022-11-15T04:31:52.679Z,0.20
2022-11-15T04:32:52.667Z,0.20
2022-11-15T04:33:52.675Z,0.20
2022-11-15T04:34:52.642Z,0.20
2022-11-15T04:35:52.626Z,0.20
2022-11-15T04:36:52.622Z,0.20
2022-11-15T04:37:52.609Z,0.20
2022-11-15T04:38:52.592Z,0.20
2022-11-15T04:39:52.577Z,0.20
2022-11-15T04:41:52.553Z,0.20
2022-11-15T04:42:52.538Z,0.20
2022-11-15T04:43:52.522Z,0.20
2022-11-15T04:44:52.512Z,0.30
2022-11-15T04:45:52.498Z,0.20
2022-11-15T04:46:52.485Z,0.20
2022-11-15T04:47:52.471Z,0.20
2022-11-15T04:48:57.961Z,0.20
2022-11-15T04:49:54.469Z,0.20
2022-11-15T04:50:52.433Z,0.20
2022-11-15T04:52:52.427Z,0.20
2022-11-15T04:53:52.393Z,0.20
2022-11-15T04:54:52.384Z,0.20
2022-11-15T04:55:52.367Z,0.20
2022-11-15T04:56:52.356Z,0.20
2022-11-15T04:57:52.342Z,0.20
2022-11-15T04:58:52.331Z,0.20
2022-11-15T04:59:52.315Z,0.20
2022-11-15T05:00:52.370Z,0.20
2022-11-15T05:01:52.290Z,0.20
2022-11-15T05:03:52.266Z,0.20
2022-11-15T05:04:52.254Z,0.20
2022-11-15T05:05:52.266Z,0.20
2022-11-15T05:06:52.303Z,0.20
2022-11-15T05:07:52.212Z,0.20
2022-11-15T05:08:52.201Z,0.20
2022-11-15T05:09:52.186Z,0.20
2022-11-15T05:10:52.176Z,0.20
2022-11-15T05:11:52.159Z,0.20
2022-11-15T05:12:52.147Z,0.30
2022-11-15T05:14:52.122Z,0.20
2022-11-15T05:15:52.108Z,0.20
2022-11-15T05:16:52.096Z,0.30
2022-11-15T05:17:52.083Z,0.20
2022-11-15T05:18:52.069Z,0.20
2022-11-15T05:19:52.057Z,0.20
2022-11-15T05:20:52.048Z,0.20
2022-11-15T05:21:52.052Z,0.30
2022-11-15T05:22:52.019Z,0.20
2022-11-15T05:23:52.003Z,0.20
2022-11-15T05:25:51.977Z,0.30
2022-11-15T05:26:51.964Z,0.20
2022-11-15T05:27:51.950Z,0.30
2022-11-15T05:28:51.940Z,0.20
2022-11-15T05:29:51.923Z,0.20
2022-11-15T05:30:51.917Z,0.30
2022-11-15T05:31:51.898Z,0.20
2022-11-15T05:32:51.892Z,0.40
2022-11-15T05:33:51.871Z,0.30
2022-11-15T05:34:51.858Z,0.20
2022-11-15T05:36:51.833Z,0.30
2022-11-15T05:37:51.838Z,0.20
2022-11-15T05:38:51.805Z,0.30
2022-11-15T05:39:51.792Z,0.20
2022-11-15T05:40:51.784Z,0.20
2022-11-15T05:41:51.766Z,0.20
2022-11-15T05:42:51.752Z,0.30
2022-11-15T05:43:51.737Z,0.30
2022-11-15T05:44:51.725Z,0.20
2022-11-15T05:45:51.712Z,0.20
2022-11-15T05:47:51.684Z,0.30
2022-11-15T05:48:51.673Z,0.30
2022-11-15T05:49:51.659Z,0.20
2022-11-15T05:50:51.645Z,0.30
2022-11-15T05:51:51.631Z,0.30
2022-11-15T05:52:51.616Z,0.20
2022-11-15T05:53:51.650Z,0.30
2022-11-15T05:54:51.589Z,0.30
2022-11-15T05:55:51.578Z,0.20
2022-11-15T05:56:51.565Z,0.30
2022-11-15T05:58:55.512Z,0.30
2022-11-15T05:59:53.522Z,0.30
2022-11-15T06:00:51.508Z,0.20
2022-11-15T06:01:51.590Z,0.30
2022-11-15T06:02:51.484Z,0.30
2022-11-15T06:03:51.472Z,0.20
2022-11-15T06:04:51.456Z,0.20
2022-11-15T06:05:51.444Z,0.30
2022-11-15T06:06:51.511Z,0.30
2022-11-15T06:07:51.417Z,0.30
2022-11-15T06:09:51.414Z,0.30
2022-11-15T06:10:51.377Z,0.30
2022-11-15T06:11:51.364Z,0.20
2022-11-15T06:12:51.350Z,0.20
2022-11-15T06:13:51.337Z,0.30
2022-11-15T06:14:51.321Z,0.20
2022-11-15T06:15:51.311Z,0.20
2022-11-15T06:16:51.297Z,0.20
2022-11-15T06:17:51.283Z,0.20
2022-11-15T06:18:51.268Z,0.30
2022-11-15T06:20:51.248Z,0.20
2022-11-15T06:21:51.233Z,0.30
2022-11-15T06:22:51.216Z,0.30
2022-11-15T06:23:51.204Z,0.20
2022-11-15T06:24:51.188Z,0.30
2022-11-15T06:25:51.202Z,0.20
2022-11-15T06:26:51.161Z,0.30
2022-11-15T06:27:51.151Z,13.00
2022-11-15T06:28:51.136Z,0.40
2022-11-15T06:29:51.123Z,0.40
2022-11-15T06:31:51.097Z,0.40
2022-11-15T06:32:51.083Z,0.50
2022-11-15T06:33:51.071Z,0.40
2022-11-15T06:34:51.058Z,0.40
2022-11-15T06:35:51.044Z,0.50
2022-11-15T06:36:51.029Z,0.40
2022-11-15T06:37:51.017Z,0.40
2022-11-15T06:38:51.005Z,33.70
2022-11-15T06:39:50.995Z,0.40
2022-11-15T06:40:50.978Z,0.40
2022-11-15T06:42:50.950Z,0.40
2022-11-15T06:43:50.937Z,0.50
2022-11-15T06:44:50.923Z,0.40
2022-11-15T06:45:50.914Z,0.30
2022-11-15T06:46:50.898Z,0.40
2022-11-15T06:47:50.888Z,0.50
2022-11-15T06:48:50.871Z,0.40
2022-11-15T06:49:50.872Z,15.30
2022-11-15T06:50:50.849Z,0.40
2022-11-15T06:51:50.834Z,0.40
2022-11-15T06:53:50.809Z,0.30
2022-11-15T06:54:50.794Z,0.40
2022-11-15T06:55:55.043Z,0.50
2022-11-15T06:56:50.771Z,0.40
2022-11-15T06:57:50.778Z,0.50
2022-11-15T06:58:50.742Z,0.50
2022-11-15T06:59:50.730Z,13.69
2022-11-15T07:00:50.825Z,33.29
2022-11-15T07:01:50.773Z,33.29
2022-11-15T07:02:50.689Z,32.79
2022-11-15T07:04:50.663Z,29.60
2022-11-15T07:05:50.652Z,28.60
2022-11-15T07:06:50.713Z,22.50
2022-11-15T07:07:50.626Z,20.70
2022-11-15T07:08:50.612Z,22.50
2022-11-15T07:09:50.601Z,23.00
2022-11-15T07:10:50.585Z,23.50
2022-11-15T07:11:50.575Z,23.39
2022-11-15T07:12:50.561Z,23.29
2022-11-15T07:13:50.601Z,24.00
2022-11-15T07:15:50.522Z,23.29
2022-11-15T07:16:50.508Z,23.89
2022-11-15T07:17:50.497Z,23.79
2022-11-15T07:18:50.482Z,22.50
2022-11-15T07:19:50.475Z,23.10
2022-11-15T07:20:50.457Z,23.20
2022-11-15T07:21:50.445Z,22.50
2022-11-15T07:22:50.432Z,22.79
2022-11-15T07:23:50.423Z,22.50
2022-11-15T07:24:50.404Z,20.29
2022-11-15T07:26:50.379Z,19.60
2022-11-15T07:27:50.367Z,20.89
2022-11-15T07:28:50.353Z,20.00
2022-11-15T07:29:50.363Z,19.60
2022-11-15T07:30:50.329Z,18.39
2022-11-15T07:31:50.314Z,19.10
2022-11-15T07:32:50.304Z,19.20
2022-11-15T07:33:50.291Z,19.89
2022-11-15T07:34:50.275Z,18.89
2022-11-15T07:35:50.265Z,19.00
2022-11-15T07:37:50.239Z,19.20
2022-11-15T07:38:50.222Z,19.00
2022-11-15T07:39:50.212Z,17.89
2022-11-15T07:40:50.197Z,17.79
2022-11-15T07:41:50.186Z,17.39
2022-11-15T07:42:50.170Z,17.60
2022-11-15T07:43:50.160Z,20.10
2022-11-15T07:44:50.148Z,18.60
2022-11-15T07:45:53.458Z,17.10
2022-11-15T07:46:50.122Z,17.10
2022-11-15T07:48:50.100Z,17.39
2022-11-15T07:49:50.091Z,16.00
2022-11-15T07:50:50.072Z,16.39
2022-11-15T07:51:50.063Z,17.39
2022-11-15T07:52:50.045Z,16.60
2022-11-15T07:53:50.034Z,16.39
2022-11-15T07:54:50.023Z,15.39
2022-11-15T07:55:50.009Z,19.10
2022-11-15T07:56:49.995Z,19.89
2022-11-15T07:57:49.984Z,20.00
2022-11-15T07:59:49.961Z,19.70
2022-11-15T08:00:49.943Z,20.50
2022-11-15T08:01:50.090Z,18.79
2022-11-15T08:02:50.007Z,21.89
2022-11-15T08:03:49.907Z,21.00
2022-11-15T08:04:49.893Z,20.10
2022-11-15T08:05:49.883Z,20.39
2022-11-15T08:06:49.938Z,19.29
2022-11-15T08:07:52.639Z,21.00
2022-11-15T08:08:49.843Z,21.50
2022-11-15T08:10:49.816Z,21.70
2022-11-15T08:11:50.018Z,21.70
2022-11-15T08:12:49.866Z,22.70
2022-11-15T08:13:49.780Z,25.70
2022-11-15T08:14:49.770Z,23.89
2022-11-15T08:15:54.787Z,25.00
2022-11-15T08:16:49.739Z,27.50
2022-11-15T08:17:49.753Z,27.60
2022-11-15T08:18:49.713Z,26.70
2022-11-15T08:19:49.705Z,27.60
2022-11-15T08:21:49.679Z,28.10
2022-11-15T08:22:49.663Z,30.00
2022-11-15T08:23:49.650Z,27.89
2022-11-15T08:24:49.639Z,29.10
2022-11-15T08:25:49.626Z,28.20
2022-11-15T08:26:49.644Z,28.29
2022-11-15T08:27:49.603Z,27.29
2022-11-15T08:28:49.586Z,28.39
2022-11-15T08:29:49.575Z,31.10
2022-11-15T08:30:49.562Z,34.29
2022-11-15T08:32:49.535Z,34.70
2022-11-15T08:33:49.546Z,42.29
2022-11-15T08:34:49.509Z,41.90
2022-11-15T08:35:49.499Z,36.70
2022-11-15T08:36:49.481Z,34.70
2022-11-15T08:37:49.472Z,26.70
2022-11-15T08:38:49.460Z,23.20
2022-11-15T08:39:49.448Z,24.79
2022-11-15T08:40:49.430Z,26.60
2022-11-15T08:41:49.419Z,25.79
2022-11-15T08:43:49.397Z,25.10
2022-11-15T08:44:49.391Z,23.50
2022-11-15T08:45:49.376Z,24.10
2022-11-15T08:46:49.357Z,25.10
2022-11-15T08:47:53.995Z,23.70
2022-11-15T08:48:49.331Z,24.29
2022-11-15T08:49:49.344Z,24.20
2022-11-15T08:50:49.306Z,23.89
2022-11-15T08:51:49.299Z,25.29
2022-11-15T08:52:49.396Z,25.89
2022-11-15T08:54:49.255Z,24.50
2022-11-15T08:55:49.242Z,23.29
2022-11-15T08:56:49.242Z,21.60
2022-11-15T08:57:49.225Z,21.00
2022-11-15T08:58:49.205Z,19.00
2022-11-15T08:59:49.189Z,20.29
2022-11-15T09:00:49.180Z,19.89
2022-11-15T09:01:49.240Z,21.39
2022-11-15T09:02:49.151Z,21.20
2022-11-15T09:03:49.138Z,22.70
2022-11-15T09:05:49.134Z,21.79
2022-11-15T09:06:49.138Z,22.20
2022-11-15T09:07:49.085Z,24.00
2022-11-15T09:08:49.120Z,24.39
2022-11-15T09:09:49.059Z,28.79
2022-11-15T09:10:49.045Z,29.39
2022-11-15T09:11:49.035Z,28.50
2022-11-15T09:12:49.021Z,28.79
2022-11-15T09:13:49.007Z,28.50
2022-11-15T09:14:48.995Z,32.79
2022-11-15T09:16:48.969Z,24.60
2022-11-15T09:17:48.956Z,21.39
2022-11-15T09:18:48.942Z,25.00
2022-11-15T09:19:48.933Z,27.50
2022-11-15T09:20:48.915Z,25.89
2022-11-15T09:21:48.927Z,26.50
2022-11-15T09:22:48.889Z,27.70
2022-11-15T09:23:48.879Z,30.79
2022-11-15T09:24:48.863Z,32.79
2022-11-15T09:25:48.852Z,30.50
2022-11-15T09:27:48.827Z,32.40
2022-11-15T09:28:48.812Z,34.20
2022-11-15T09:29:48.799Z,31.20
2022-11-15T09:30:48.796Z,29.50
2022-11-15T09:31:48.776Z,34.09
2022-11-15T09:32:48.760Z,36.29
2022-11-15T09:33:48.747Z,34.50
2022-11-15T09:34:48.733Z,34.70
2022-11-15T09:35:48.724Z,33.59
2022-11-15T09:36:48.709Z,33.40
2022-11-15T09:38:48.684Z,31.89
2022-11-15T09:39:48.672Z,28.29
2022-11-15T09:40:48.656Z,28.60
2022-11-15T09:41:48.644Z,31.20
2022-11-15T09:42:48.630Z,28.79
2022-11-15T09:43:48.621Z,29.20
2022-11-15T09:44:48.603Z,30.10
2022-11-15T09:45:48.594Z,30.70
2022-11-15T09:46:48.578Z,29.00
2022-11-15T09:47:48.566Z,30.29
2022-11-15T09:49:49.472Z,31.00
2022-11-15T09:50:48.527Z,29.70
2022-11-15T09:51:48.622Z,30.70
2022-11-15T09:52:48.500Z,36.09
2022-11-15T09:54:30.375Z,37.09
2022-11-15T09:54:54.249Z,40.09
2022-11-15T09:55:48.465Z,36.09
2022-11-15T09:56:48.451Z,35.90
2022-11-15T09:57:48.439Z,37.70
2022-11-15T09:58:48.422Z,37.20
2022-11-15T10:00:48.758Z,34.50
2022-11-15T10:01:48.493Z,32.29
2022-11-15T10:02:48.372Z,30.29
2022-11-15T10:03:48.359Z,26.79
2022-11-15T10:04:48.344Z,28.00
2022-11-15T10:05:48.334Z,27.89
2022-11-15T10:06:48.359Z,28.20
2022-11-15T10:07:48.307Z,26.89
2022-11-15T10:08:48.296Z,27.10
2022-11-15T10:09:48.300Z,28.70
2022-11-15T10:11:48.252Z,30.89
2022-11-15T10:12:48.241Z,32.29
2022-11-15T10:13:48.227Z,31.00
2022-11-15T10:14:54.225Z,34.00
2022-11-15T10:15:48.201Z,30.70
2022-11-15T10:16:48.193Z,32.90
2022-11-15T10:17:48.176Z,31.10
2022-11-15T10:18:48.167Z,29.29
2022-11-15T10:19:48.146Z,29.39
2022-11-15T10:20:48.136Z,32.70
2022-11-15T10:22:48.110Z,32.29
2022-11-15T10:23:48.096Z,32.79
2022-11-15T10:24:48.084Z,32.09
2022-11-15T10:25:48.093Z,31.39
2022-11-15T10:26:48.057Z,29.70
2022-11-15T10:27:48.045Z,30.10
2022-11-15T10:28:48.033Z,28.10
2022-11-15T10:29:48.018Z,30.00
2022-11-15T10:30:48.007Z,31.60
2022-11-15T10:31:48.000Z,33.00
2022-11-15T10:33:47.965Z,37.29
2022-11-15T10:34:47.954Z,39.70
2022-11-15T10:35:47.939Z,39.59
2022-11-15T10:36:50.327Z,40.59
2022-11-15T10:37:47.914Z,38.90
2022-11-15T10:38:47.903Z,37.09
2022-11-15T10:39:47.889Z,36.50
2022-11-15T10:40:47.876Z,37.50
2022-11-15T10:41:47.887Z,37.00
2022-11-15T10:42:47.852Z,35.20
2022-11-15T10:44:47.826Z,46.40
2022-11-15T10:45:47.814Z,47.20
2022-11-15T10:46:48.139Z,50.50
2022-11-15T10:47:47.993Z,50.70
2022-11-15T10:48:47.776Z,54.40
2022-11-15T10:49:47.760Z,51.40
2022-11-15T10:50:47.750Z,50.40
2022-11-15T10:51:47.733Z,43.40
2022-11-15T10:52:47.722Z,46.79
2022-11-15T10:53:47.706Z,45.59
2022-11-15T10:55:47.680Z,46.59
2022-11-15T10:56:47.669Z,45.29
2022-11-15T10:57:47.683Z,43.29
2022-11-15T10:58:47.643Z,36.00
2022-11-15T10:59:47.629Z,45.79
2022-11-15T11:00:47.621Z,45.79
2022-11-15T11:01:47.691Z,47.40
2022-11-15T11:02:47.597Z,51.29
2022-11-15T11:03:47.605Z,42.59
2022-11-15T11:04:47.564Z,36.79
2022-11-15T11:06:47.557Z,42.09
2022-11-15T11:07:47.524Z,39.90
2022-11-15T11:08:47.512Z,44.29
2022-11-15T11:09:47.507Z,44.59
2022-11-15T11:10:52.772Z,45.59
2022-11-15T11:11:49.473Z,44.09
2022-11-15T11:12:47.463Z,44.70
2022-11-15T11:13:47.474Z,46.70
2022-11-15T11:14:47.436Z,45.29
2022-11-15T11:15:47.424Z,48.70
2022-11-15T11:17:47.399Z,46.09
2022-11-15T11:18:47.387Z,39.00
2022-11-15T11:19:47.374Z,37.00
2022-11-15T11:20:47.363Z,40.00
2022-11-15T11:21:47.348Z,41.20
2022-11-15T11:22:47.339Z,43.59
2022-11-15T11:23:47.322Z,43.79
2022-11-15T11:24:47.316Z,42.50
2022-11-15T11:25:47.300Z,43.00
2022-11-15T11:26:47.287Z,43.00
2022-11-15T11:28:47.262Z,38.00
2022-11-15T11:29:47.280Z,37.70
2022-11-15T11:30:47.240Z,39.29
2022-11-15T11:31:47.224Z,39.29
2022-11-15T11:32:50.228Z,39.50
2022-11-15T11:33:47.199Z,42.59
2022-11-15T11:34:47.194Z,44.00
2022-11-15T11:35:47.177Z,43.79
2022-11-15T11:36:47.164Z,40.29
2022-11-15T11:37:47.152Z,41.40
2022-11-15T11:39:47.123Z,38.59
2022-11-15T11:40:47.111Z,41.00
2022-11-15T11:41:47.103Z,37.59
2022-11-15T11:42:47.088Z,39.50
2022-11-15T11:43:47.072Z,41.59
2022-11-15T11:44:47.066Z,41.20
2022-11-15T11:45:47.531Z,41.00
2022-11-15T11:46:47.036Z,42.29
2022-11-15T11:47:47.023Z,42.59
2022-11-15T11:48:47.014Z,41.79
2022-11-15T11:50:46.988Z,46.00
2022-11-15T11:51:46.973Z,47.40
2022-11-15T11:52:46.962Z,53.70
2022-11-15T11:53:46.946Z,50.00
2022-11-15T11:54:46.935Z,55.50
2022-11-15T11:55:46.920Z,51.79
2022-11-15T11:56:46.907Z,48.90
2022-11-15T11:57:46.901Z,47.40
2022-11-15T11:58:46.882Z,52.40
2022-11-15T11:59:46.869Z,49.29
2022-11-15T12:01:47.086Z,51.29
2022-11-15T12:02:47.013Z,55.29
2022-11-15T12:03:46.833Z,55.20
2022-11-15T12:04:46.806Z,53.09
2022-11-15T12:05:46.795Z,53.70
2022-11-15T12:06:46.826Z,43.70
2022-11-15T12:07:46.765Z,44.00
2022-11-15T12:08:46.759Z,41.70
2022-11-15T12:09:46.741Z,45.09
2022-11-15T12:10:46.730Z,51.00
2022-11-15T12:12:46.706Z,51.59
2022-11-15T12:13:46.693Z,44.90
2022-11-15T12:14:46.680Z,49.00
2022-11-15T12:15:46.667Z,56.29
2022-11-15T12:16:46.658Z,53.29
2022-11-15T12:17:46.661Z,46.59
2022-11-15T12:18:46.628Z,43.90
2022-11-15T12:19:46.612Z,41.50
2022-11-15T12:20:46.601Z,44.90
2022-11-15T12:21:46.590Z,46.59
2022-11-15T12:23:46.563Z,48.79
2022-11-15T12:24:46.552Z,51.50
2022-11-15T12:25:46.537Z,49.40
2022-11-15T12:26:46.525Z,50.00
2022-11-15T12:27:46.509Z,57.79
2022-11-15T12:29:05.782Z,59.20
2022-11-15T12:29:46.483Z,49.90
2022-11-15T12:30:46.472Z,54.79
2022-11-15T12:31:46.461Z,49.29
2022-11-15T12:32:46.447Z,47.79
2022-11-15T12:34:46.419Z,41.00
2022-11-15T12:35:46.405Z,40.50
2022-11-15T12:36:46.395Z,40.70
2022-11-15T12:37:46.381Z,39.09
2022-11-15T12:38:46.369Z,38.00
2022-11-15T12:39:46.355Z,40.29
2022-11-15T12:40:46.342Z,40.20
2022-11-15T12:41:46.329Z,39.40
2022-11-15T12:42:46.322Z,38.20
2022-11-15T12:43:46.304Z,40.40
2022-11-15T12:45:46.276Z,39.29
2022-11-15T12:46:46.265Z,41.70
2022-11-15T12:47:46.251Z,41.90
2022-11-15T12:48:46.238Z,42.20
2022-11-15T12:49:46.246Z,40.20
2022-11-15T12:50:46.211Z,38.00
2022-11-15T12:51:46.197Z,39.50
2022-11-15T12:52:46.186Z,36.40
2022-11-15T12:53:46.174Z,38.50
2022-11-15T12:54:46.161Z,39.20
2022-11-15T12:56:46.360Z,38.00
2022-11-15T12:58:46.117Z,38.20
2022-11-15T12:59:46.094Z,38.00
2022-11-15T13:00:46.082Z,37.50
2022-11-15T13:01:46.112Z,36.29
2022-11-15T13:02:46.057Z,38.29
2022-11-15T13:03:46.042Z,39.70
2022-11-15T13:04:46.031Z,41.20
2022-11-15T13:05:46.039Z,40.29
2022-11-15T13:07:45.991Z,40.09
2022-11-15T13:08:45.979Z,39.79
2022-11-15T13:09:45.961Z,37.90
2022-11-15T13:10:45.953Z,37.29
2022-11-15T13:11:45.939Z,38.70
2022-11-15T13:12:45.962Z,39.00
2022-11-15T13:13:45.914Z,40.40
2022-11-15T13:14:45.903Z,39.20
2022-11-15T13:15:45.891Z,40.20
2022-11-15T13:16:45.874Z,38.20
2022-11-15T13:18:45.855Z,35.20
2022-11-15T13:19:45.834Z,35.90
2022-11-15T13:20:45.824Z,33.20
2022-11-15T13:21:45.832Z,34.79
2022-11-15T13:22:45.797Z,37.40
2022-11-15T13:23:45.783Z,36.00
2022-11-15T13:24:45.771Z,36.79
2022-11-15T13:25:45.756Z,39.50
2022-11-15T13:26:45.745Z,39.40
2022-11-15T13:27:45.742Z,39.90
2022-11-15T13:29:45.705Z,40.00
2022-11-15T13:30:45.711Z,39.00
2022-11-15T13:31:45.681Z,39.50
2022-11-15T13:32:45.667Z,39.79
2022-11-15T13:33:45.661Z,39.70
2022-11-15T13:34:51.378Z,41.09
2022-11-15T13:35:45.625Z,40.50
2022-11-15T13:36:45.617Z,40.00
2022-11-15T13:37:45.624Z,38.79
2022-11-15T13:38:45.589Z,40.20
2022-11-15T13:40:45.563Z,38.79
2022-11-15T13:41:45.549Z,37.70
2022-11-15T13:42:45.946Z,36.79
2022-11-15T13:43:45.523Z,39.70
2022-11-15T13:44:45.513Z,36.29
2022-11-15T13:45:45.497Z,34.29
2022-11-15T13:46:45.487Z,33.79
2022-11-15T13:47:45.471Z,33.50
2022-11-15T13:48:45.460Z,33.90
2022-11-15T13:49:45.445Z,33.70
2022-11-15T13:51:45.420Z,32.59
2022-11-15T13:52:45.408Z,32.00
2022-11-15T13:53:45.417Z,31.50
2022-11-15T13:54:45.519Z,31.60
2022-11-15T13:55:45.367Z,31.29
2022-11-15T13:56:45.356Z,30.00
2022-11-15T13:57:45.342Z,30.39
2022-11-15T13:58:45.333Z,31.60
2022-11-15T13:59:45.316Z,30.70
2022-11-15T14:00:45.304Z,32.09
2022-11-15T14:02:45.279Z,30.70
2022-11-15T14:03:45.264Z,31.39
2022-11-15T14:04:45.254Z,31.29
2022-11-15T14:05:45.239Z,31.00
2022-11-15T14:06:45.235Z,31.70
2022-11-15T14:07:45.211Z,32.70
2022-11-15T14:08:45.252Z,34.79
2022-11-15T14:09:45.228Z,37.59
2022-11-15T14:10:45.174Z,37.40
2022-11-15T14:11:45.160Z,37.40
2022-11-15T14:13:45.136Z,38.50
2022-11-15T14:14:45.120Z,36.29
2022-11-15T14:15:45.106Z,37.59
2022-11-15T14:16:45.100Z,38.29
2022-11-15T14:17:49.729Z,40.50
2022-11-15T14:18:45.066Z,40.00
2022-11-15T14:19:45.054Z,41.09
2022-11-15T14:20:45.041Z,42.70
2022-11-15T14:21:45.027Z,40.59
2022-11-15T14:22:45.015Z,41.00
2022-11-15T14:24:44.993Z,42.09
2022-11-15T14:25:45.004Z,44.40